x

8452944 - Conimicut Light, Ri (cptr1) Weather Station

2:30 - Sun 25th Sep 2016 All times are EDT. -4 hours from GMT.

  • Wind
    18mph, 23mph gusts
  • Sea Temp 70°f
  • Aire Temp 63°f
  • Sea Pressure 1018.4mb
  • 8452944 - Conimicut Light, Ri
  • 8452944 - Conimicut Light, Ri

More Historic Weather Station data

Upgrade to MSW Pro to gain access to the past 30 days of data for over 8000 Wavebouys and Weather Stations around the globe.

Join Pro

Comparision Forecast

View Surf forecast
   
dom 09/25 2:30 18 23 mph 1018.4mb 70f 63f
2:24 11 23 mph 1018.4mb 70f 63f
2:18 18 24 mph 1018.4mb 70f 62f
2:12 16 20 mph 1018.5mb 70f 63f
2:06 17 21 mph 1018.6mb 70f 64f
2:00 17 20 mph 1018.7mb 70f 64f
1:54 16 21 mph 1018.7mb 70f 62f
1:48 15 23 mph 1018.7mb 70f 63f
1:42 20 24 mph 1018.8mb 70f 62f
1:36 18 22 mph 1018.8mb 70f 62f
1:30 16 18 mph 1019mb 70f 62f
1:24 14 21 mph 1019.1mb 70f 62f
1:18 15 20 mph 1019.2mb 70f 63f
1:12 20 23 mph 1019.3mb 70f 63f
1:06 14 22 mph 1019.4mb 70f 60f
1:00 17 21 mph 1019.4mb 70f 60f
12:54 15 20 mph 1019.6mb 70f 62f
12:48 11 17 mph 1019.6mb 70f 61f
12:42 16 21 mph 1019.6mb 70f 61f
12:36 15 22 mph 1019.7mb 70f 60f
12:30 20 24 mph 1019.6mb 70f 60f
12:24 13 20 mph 1019.8mb 70f 59f
12:18 13 18 mph 1019.8mb 70f 60f
12:12 13 16 mph 1019.8mb 70f 60f
12:06 15 21 mph 1019.9mb 70f 60f
12:00 14 20 mph 1019.9mb 69f 60f
11:54 15 21 mph 1019.9mb 69f 60f
11:48 17 21 mph 1019.9mb 69f 60f
11:42 14 17 mph 1020mb 70f 59f
11:36 13 20 mph 1020.1mb 70f 59f
11:30 16 22 mph 1020.1mb 70f 59f
11:24 14 20 mph 1020.2mb 70f 60f
11:18 15 18 mph 1020.1mb 70f 59f
11:12 15 18 mph 1020.2mb 70f 59f
11:06 17 21 mph 1020.2mb 70f 58f
11:00 14 21 mph 1020.3mb 70f 59f
10:54 16 23 mph 1020.2mb 70f 58f
10:48 18 24 mph 1020.3mb 70f 59f
10:42 22 25 mph 1020.3mb 70f 59f
10:36 22 29 mph 1020.4mb 70f 59f
10:30 23 25 mph 1020.4mb 70f 57f
10:24 18 25 mph 1020.5mb 70f 57f
10:18 20 23 mph 1020.4mb 70f 57f
10:12 18 26 mph 1020.5mb 70f 58f
10:06 17 25 mph 1020.5mb 70f 57f
10:00 21 24 mph 1020.4mb 70f 57f
9:54 18 22 mph 1020.5mb 70f 57f
9:48 20 23 mph 1020.5mb 70f 56f
9:42 21 26 mph 1020.5mb 70f 56f
9:36 17 22 mph 1020.5mb 70f 57f
9:30 21 24 mph 1020.4mb 70f 57f
9:24 20 23 mph 1020.5mb 70f 57f
9:18 20 26 mph 1020.5mb 70f 56f
9:12 17 23 mph 1020.6mb 70f 56f
9:06 20 25 mph 1020.5mb 70f 55f
9:00 21 25 mph 1020.5mb 70f 56f
8:54 20 25 mph 1020.5mb 70f 55f
8:48 18 21 mph 1020.6mb 70f 55f
8:42 17 23 mph 1020.6mb 70f 55f
8:36 16 21 mph 1020.6mb 70f 55f
8:30 17 22 mph 1020.7mb 70f 54f
8:24 20 23 mph 1020.7mb 70f 55f
8:18 20 23 mph 1020.7mb 70f 54f
8:12 18 23 mph 1020.7mb 70f 54f
8:06 15 21 mph 1020.7mb 70f 54f
8:00 15 22 mph 1020.7mb 70f 53f
7:54 16 20 mph 1020.6mb 70f 53f
7:48 17 21 mph 1020.6mb 70f 52f
7:42 15 21 mph 1020.5mb 70f 52f
7:36 16 20 mph 1020.5mb 70f 52f
7:30 17 20 mph 1020.4mb 70f 52f
7:24 17 21 mph 1020.3mb 70f 51f
7:18 16 21 mph 1020.3mb 70f 52f
7:12 20 22 mph 1020.3mb 70f 52f
7:06 17 21 mph 1020.2mb 70f 52f
7:00 18 21 mph 1020.1mb 70f 52f
6:54 17 21 mph 1020.1mb 70f 52f
6:48 18 21 mph 1020.1mb 70f 52f
6:42 17 21 mph 1020.1mb 70f 52f
6:36 18 22 mph 1020mb 70f 52f
6:30 18 21 mph 1019.9mb 70f 52f
6:24 18 21 mph 1019.9mb 70f 52f
6:18 18 22 mph 1019.9mb 70f 53f
6:12 18 22 mph 1019.8mb 70f 52f
6:06 17 21 mph 1019.7mb 70f 53f
6:00 18 21 mph 1019.8mb 70f 52f
5:54 16 20 mph 1019.9mb 70f 52f
5:48 16 21 mph 1019.9mb 70f 53f
5:42 18 22 mph 1019.8mb 70f 53f
5:36 18 21 mph 1019.7mb 70f 53f
5:30 18 20 mph 1019.6mb 70f 53f
5:24 17 21 mph 1019.5mb 70f 53f
5:18 18 22 mph 1019.5mb 70f 53f
5:12 17 21 mph 1019.4mb 70f 54f
5:06 18 23 mph 1019.3mb 70f 54f
5:00 18 22 mph 1019.3mb 70f 54f
4:54 18 26 mph 1019.2mb 70f 55f
4:48 21 25 mph 1019.3mb 70f 55f
4:42 22 25 mph 1019.2mb 70f 55f
4:36 21 24 mph 1019.1mb 71f 55f
4:30 20 26 mph 1019.2mb 71f 55f
4:24 20 22 mph 1019.2mb 71f 55f
4:18 18 24 mph 1019.1mb 70f 56f
4:12 17 21 mph 1019.1mb 70f 55f
4:06 16 22 mph 1019.2mb 70f 55f
4:00 20 24 mph 1019mb 70f 55f
3:54 21 24 mph 1018.9mb 70f 55f
3:48 21 22 mph 1019mb 70f 55f
3:42 21 22 mph 1019.1mb 70f 55f
3:36 20 24 mph 1018.9mb 70f 55f
3:30 18 23 mph 1019mb 70f 55f
3:24 21 24 mph 1018.9mb 70f 55f
3:18 21 23 mph 1018.8mb 70f 55f
3:12 20 24 mph 1018.8mb 70f 55f
3:06 21 23 mph 1018.9mb 70f 56f
3:00 21 23 mph 1018.8mb 70f 56f
2:54 21 23 mph 1018.9mb 70f 56f
2:48 20 23 mph 1019mb 70f -
2:42 17 20 mph 1019mb 70f -
2:36 15 20 mph 1019mb 70f -
2:30 16 20 mph 1019mb 70f 55f
2:24 16 20 mph 1018.9mb 70f 56f
2:18 16 20 mph 1019mb 70f 56f
2:12 17 22 mph 1018.9mb 70f 56f
2:06 18 22 mph 1018.8mb 70f 56f
2:00 18 21 mph 1018.8mb 71f 57f
1:54 17 21 mph 1018.8mb 71f 57f
1:48 16 21 mph - - -
1:42 18 20 mph - - -
1:36 18 21 mph - - -
1:30 17 18 mph 1018.7mb 71f 58f
1:24 16 20 mph 1018.7mb 71f 58f
1:18 17 20 mph 1018.7mb 71f 58f
1:12 16 20 mph 1018.7mb 71f 58f
1:06 15 17 mph 1018.8mb 71f 58f
1:00 13 15 mph 1018.8mb 71f 58f
12:54 14 15 mph 1018.7mb 71f 58f
12:48 13 14 mph 1018.7mb 71f 58f
12:42 11 15 mph 1018.7mb 71f 58f
12:36 11 14 mph 1018.7mb 71f 58f
12:30 11 14 mph 1018.8mb 71f 58f
12:24 10 14 mph 1018.9mb 71f 58f
12:18 10 13 mph 1018.9mb 71f 58f
12:12 11 13 mph 1019mb 71f 58f
12:06 10 13 mph 1019.1mb 71f 58f
12:00 9 11 mph 1019.1mb 71f 57f
sáb 09/24 11:54 10 11 mph 1019.1mb 71f 57f
11:48 9 11 mph 1019.2mb 71f 57f
11:42 11 13 mph 1019.2mb 71f 58f
11:36 10 13 mph 1019.2mb 71f 58f
11:30 11 13 mph 1019.2mb 71f 58f
11:24 11 13 mph 1019.2mb 71f 59f
11:18 10 11 mph 1019.2mb 71f 59f
11:12 10 13 mph 1019.2mb 71f 59f
11:06 11 13 mph 1019.2mb 71f 59f
11:00 9 11 mph 1019.3mb 71f 59f
10:54 9 11 mph 1019.3mb 71f 59f
10:48 9 10 mph 1019.3mb 71f 59f
10:42 10 11 mph 1019.3mb 71f 60f
10:36 10 13 mph 1019.2mb 71f 60f
10:30 9 11 mph 1019.2mb 71f 59f
10:24 10 13 mph 1019.3mb 71f 58f
10:18 10 14 mph 1019.4mb 71f 60f
10:12 9 13 mph 1019.4mb 71f 61f
10:06 11 14 mph 1019.3mb 71f 61f
10:00 10 16 mph 1019.4mb 72f 60f
9:54 11 15 mph 1019.3mb 72f 61f
9:48 11 15 mph 1019.3mb 72f 61f
9:42 9 15 mph 1019.3mb 72f 61f
9:36 10 14 mph 1019.2mb 72f 62f
9:30 11 17 mph 1019.2mb 72f -
9:24 15 18 mph 1019.1mb 72f -
9:18 14 16 mph 1019.1mb 72f 62f
9:12 10 14 mph 1019.2mb 72f 62f
9:06 13 17 mph 1019.1mb 72f 62f
9:00 16 18 mph 1019.1mb 72f 62f
8:54 16 20 mph 1019.1mb 72f 62f
8:48 14 16 mph 1019.1mb 72f 63f
8:42 15 17 mph 1019.1mb 72f 63f
8:36 14 18 mph 1019mb 72f 63f
8:30 16 18 mph 1018.9mb 72f 63f
8:24 17 21 mph 1018.8mb 72f 63f
8:18 17 21 mph 1018.8mb 72f 64f
8:12 13 17 mph 1018.8mb 72f 64f
8:06 15 17 mph 1018.7mb 72f 64f
8:00 13 17 mph 1018.7mb 72f 64f
7:54 13 16 mph 1018.7mb 72f 64f
7:48 13 14 mph 1018.6mb 72f -
7:42 10 14 mph 1018.5mb 72f -
7:36 11 14 mph 1018.4mb 72f -
7:30 10 13 mph 1018.3mb 72f 64f
7:24 11 14 mph 1018.3mb 72f 64f
7:18 13 17 mph 1018.3mb 72f 64f
7:12 14 17 mph 1018.3mb 72f 64f
7:06 14 17 mph 1018.3mb 72f 64f
7:00  -  mph 1018.2mb 72f 65f
6:54  -  mph 1018.1mb 72f 65f
6:48 14 16 mph 1018mb 72f -
6:42 15 17 mph 1017.9mb 72f -
6:36 14 18 mph 1017.8mb 72f -
6:30 15 18 mph - 72f -
6:24 14 18 mph - 72f -
6:18 15 17 mph 1017.7mb 72f 65f
6:12 15 16 mph 1017.7mb 72f 65f
6:06 16 17 mph 1017.7mb 72f 65f
6:00 15 17 mph 1017.7mb 72f 65f
5:54 13 18 mph 1017.6mb 72f 65f
5:48 15 17 mph 1017.6mb 72f 65f
5:42 14 22 mph 1017.6mb 72f 65f
5:36 10 13 mph 1017.5mb 72f 65f
5:30 9 11 mph 1017.5mb 72f 66f
5:24 10 20 mph 1017.5mb 72f 68f
5:18 10 15 mph 1017.4mb 72f 66f
5:12 10 13 mph 1017.4mb 72f 67f
5:06 10 16 mph 1017.3mb 72f 67f
5:00 15 18 mph 1017.3mb 72f 66f
4:54 16 18 mph 1017.3mb 72f 65f
4:48 16 21 mph 1017.3mb 72f 65f
4:42 15 17 mph 1017.4mb 72f 65f
4:36 17 20 mph 1017.3mb 72f 65f
4:30 17 22 mph 1017.3mb 72f 66f
4:24 16 22 mph 1017.2mb 72f 67f
4:18 14 17 mph 1017.2mb 72f 68f
4:12 11 15 mph 1017.2mb 72f 67f
4:06 10 16 mph 1017.3mb 72f 67f
4:00 14 21 mph 1017.2mb 72f 65f
3:54 20 23 mph 1017.1mb 72f 66f
3:48 11 14 mph 1017.2mb 72f 67f
3:42 10 14 mph 1017.3mb 72f 66f
3:36 13 15 mph 1017.4mb 72f 66f
3:30 11 17 mph 1017.4mb 72f 67f
3:24 13 15 mph 1017.5mb 72f 66f
3:18 11 18 mph 1017.5mb 72f 66f
3:12 14 17 mph 1017.5mb 72f 65f
3:06 14 20 mph 1017.6mb 72f 65f
3:00 18 20 mph 1017.7mb 72f 65f
2:54 15 17 mph 1017.7mb 72f 65f
2:48 13 16 mph 1017.7mb 72f 65f
2:42 15 16 mph 1017.7mb 72f 66f
2:36 7 9 mph 1017.8mb 72f 66f
2:30 11 16 mph 1017.8mb 72f 65f
2:24 11 14 mph 1017.8mb 72f 65f
2:18 10 15 mph 1017.9mb 72f 66f
2:12 10 14 mph 1017.9mb 72f 64f
2:06 11 18 mph 1018mb 72f 64f
2:00 13 16 mph 1018mb 72f 66f
1:54 14 16 mph 1018mb 72f 65f
1:48 7 14 mph 1018mb 72f 65f
1:42 13 16 mph 1018.2mb 72f 64f
1:36 14 18 mph 1018.4mb 72f 64f
1:30 9 13 mph 1018.5mb 72f 65f
1:24 11 14 mph 1018.5mb 72f 64f
1:18 8 17 mph 1018.6mb 72f 65f
1:12 17 20 mph 1018.5mb 72f 64f
1:06 10 20 mph 1018.6mb 72f 65f
1:00 14 18 mph 1018.6mb 72f 65f
12:54 15 18 mph 1018.6mb 72f 64f
12:48 15 18 mph 1018.7mb 72f 65f
12:42 15 18 mph 1018.8mb 72f 65f
12:36 16 24 mph 1018.9mb 72f 64f
12:30 16 22 mph 1018.8mb 72f 65f
12:24 9 21 mph 1018.8mb 72f 65f
12:18 16 20 mph 1018.8mb 72f 64f
12:12 17 22 mph 1018.9mb 72f 63f
12:06 16 20 mph 1018.9mb 72f 64f
12:00 15 20 mph 1018.9mb 72f 64f
11:54 14 20 mph 1018.9mb 72f 64f
11:48 17 22 mph 1018.9mb 72f 64f
11:42 15 18 mph 1018.9mb 72f 64f
11:36 15 20 mph 1018.9mb 72f 64f
11:30 18 21 mph 1019mb 72f 63f
11:24 14 18 mph 1019.1mb 72f 63f
11:18 15 18 mph 1019mb 72f 62f
11:12 13 17 mph 1019.2mb 72f 63f
11:06 16 20 mph 1019.2mb 72f 63f
11:00 15 18 mph 1019.2mb 72f 63f
10:54 15 17 mph 1019.1mb 72f 63f
10:48 14 20 mph 1019.2mb 72f 63f
10:42 14 17 mph 1019.2mb 72f 63f
10:36 15 17 mph 1019.2mb 72f 63f
10:30 14 17 mph 1019.2mb 72f 63f
10:24 11 16 mph 1019.2mb 72f 63f
10:18 15 18 mph 1019.3mb 72f 62f
10:12 11 16 mph 1019.3mb 72f 62f
10:06 14 17 mph 1019.2mb 72f 62f
10:00 11 15 mph 1019.2mb 72f 62f
9:54 11 15 mph 1019.2mb 72f 62f
9:48 11 15 mph 1019.1mb 72f 62f
9:42 15 17 mph 1019mb 72f 62f
9:36 13 15 mph 1019mb 72f 62f
9:30 10 16 mph 1019mb 72f 62f
9:24 15 17 mph 1019mb 72f 61f
9:18 15 17 mph 1019.1mb 72f 61f
9:12 13 17 mph 1019mb 72f 61f
9:06 13 14 mph 1019mb 72f 60f
9:00 11 16 mph 1019.1mb 72f 60f
8:54 11 17 mph 1019.1mb 72f 60f
8:48 11 17 mph 1019.2mb 72f 60f
8:42 15 20 mph 1019.1mb 72f 60f
8:36 14 20 mph 1019.2mb 72f 60f
8:30 15 17 mph 1019.1mb 72f 60f
8:24 11 17 mph 1019.1mb 72f 60f
8:18 17 20 mph 1019.1mb 72f 59f
8:12 14 17 mph 1019.2mb 72f 59f
8:06 13 15 mph 1019.2mb 72f 59f
8:00 13 15 mph 1019.1mb 72f 58f
7:54 11 15 mph 1019mb 72f 59f
7:48 11 14 mph 1019mb 72f 59f
7:42 13 15 mph 1019mb 72f 58f
7:36 13 16 mph 1019mb 72f 58f
7:30 13 16 mph 1018.9mb 72f 58f
7:24 13 16 mph 1018.9mb 72f 58f
7:18 14 17 mph 1018.9mb 72f 58f
7:12 13 17 mph 1018.8mb 72f 58f
7:06 14 16 mph 1018.7mb 72f 58f
7:00 14 16 mph 1018.6mb 72f 58f
6:54 14 16 mph 1018.6mb 72f 59f
6:48 13 15 mph 1018.7mb 72f 59f
6:42 11 15 mph 1018.5mb 72f 59f
6:36 13 15 mph 1018.3mb 72f 59f
6:30 13 14 mph 1018.2mb 72f 59f
6:24 10 14 mph 1018.3mb 72f 59f
6:18 11 13 mph 1018.2mb 72f 59f
6:12 10 11 mph 1018.4mb 72f 59f
6:06 10 13 mph 1018.4mb 72f 59f
6:00 10 15 mph 1018.4mb 72f 59f
5:54 13 16 mph 1018.4mb 72f 59f
5:48 14 15 mph 1018.5mb 72f 59f
5:42 13 15 mph 1018.4mb 72f 59f
5:36 11 14 mph 1018.3mb 72f 59f
5:30 11 15 mph 1018.2mb 72f 59f
5:24 11 13 mph 1018.1mb 72f 59f
5:18 10 13 mph 1018mb 72f 59f
5:12 10 13 mph 1018mb 72f 59f
5:06 10 13 mph 1018.1mb 72f 59f
5:00 10 11 mph 1018.1mb 72f 58f
4:54 8 10 mph 1018.1mb 72f 59f
4:48 8 10 mph 1018mb 72f 58f
4:42 8 10 mph 1018mb 72f 58f
4:36 8 9 mph 1018mb 72f 58f
4:30 8 10 mph 1017.9mb 72f 58f
4:24 8 9 mph 1017.9mb 72f 58f
4:18 8 10 mph 1017.9mb 72f 58f
4:12 10 11 mph 1017.9mb 72f 58f
4:06 8 10 mph 1017.9mb 72f 58f
4:00 8 11 mph 1017.8mb 72f 58f
3:54 8 10 mph 1017.7mb 72f 58f
3:48 8 13 mph 1017.7mb 72f 58f
3:42 9 13 mph 1017.7mb 72f 58f
3:36 10 13 mph 1017.7mb 72f 58f
3:30 9 11 mph 1017.9mb 72f 58f
3:24 9 11 mph 1018.1mb 72f 58f
3:18 8 13 mph 1018.2mb 72f 58f
3:12 9 11 mph 1018.1mb 72f 58f
3:06 7 11 mph 1018mb 72f 58f
3:00 10 13 mph 1017.8mb 72f 58f
2:54 10 15 mph 1017.9mb 72f 58f
2:48 11 14 mph 1018mb 73f 58f
2:42 10 14 mph 1018.2mb 73f 58f
2:36 11 14 mph 1018.2mb 73f 58f
2:30 10 13 mph 1018.2mb 73f 58f
2:24 9 15 mph 1018.2mb 73f 58f
2:18 13 16 mph 1018.1mb 73f 58f
2:12 13 18 mph 1018.1mb 73f 58f
2:06 13 16 mph 1018.3mb 73f 58f
2:00 13 15 mph 1018.1mb 73f 58f
1:54 10 14 mph 1018.2mb 73f 58f
1:48 11 16 mph 1018.1mb 73f 58f
1:42 13 16 mph 1018.3mb 73f 58f
1:36 14 18 mph 1018.1mb 73f 58f
1:30 14 20 mph 1018.1mb 73f 58f
1:24 13 22 mph 1018.2mb 73f 58f
1:18 14 17 mph 1018.2mb 73f 59f
1:12 11 15 mph 1018mb 73f 59f
1:06 14 16 mph 1018.2mb 73f 59f
1:00 11 16 mph 1017.9mb 73f 59f
12:54 14 17 mph 1017.7mb 73f 60f
12:48 11 14 mph 1017.9mb 73f 59f
12:42 11 17 mph 1017.8mb 73f 60f
12:36 13 16 mph 1017.6mb 73f 60f
12:30 13 18 mph 1017.5mb 73f 60f
12:24 14 17 mph 1017.7mb 73f 60f
12:18 13 16 mph 1017.9mb 73f 60f
12:12 14 18 mph 1018mb 73f 61f
12:06 15 20 mph 1017.9mb 73f 61f
12:00 10 18 mph 1017.9mb 73f 62f
vie 09/23 11:54 14 17 mph 1017.8mb 73f 62f
11:48 11 15 mph 1017.6mb 73f 62f
11:42 9 16 mph 1017.6mb 73f 63f
11:36 15 17 mph 1017.9mb 73f 63f
11:30 10 20 mph 1017.8mb 73f 63f
11:24 15 20 mph 1017.4mb 73f 63f
11:18 14 20 mph 1017.5mb 73f 63f
11:12 13 17 mph 1017.5mb 73f 63f
11:06 15 20 mph 1017.5mb 73f 63f
11:00 11 14 mph 1017.4mb 73f 63f
10:54 9 22 mph 1017.6mb 73f 63f
10:48 15 18 mph 1017.4mb 73f 63f
10:42 16 20 mph 1016.9mb 73f 64f
10:36 14 18 mph 1017.1mb 73f 64f
10:30 14 21 mph 1016.9mb 73f 64f
10:24 18 24 mph 1016.9mb 73f 64f
10:18 18 24 mph 1016.9mb 73f 64f
10:12 18 23 mph 1016.8mb 73f 64f
10:06 17 26 mph 1016.6mb 73f 64f
10:00 23 26 mph 1016.5mb 73f 64f
9:54 20 26 mph 1016.6mb 73f 65f
9:48 16 22 mph 1016.3mb 73f 65f
9:42 18 23 mph 1016mb 73f 65f
9:36 17 25 mph 1016mb 73f 65f
9:30 20 24 mph 1015.8mb 73f 66f
9:24 18 23 mph 1015.9mb 73f 66f
9:18 20 23 mph 1016mb 73f 66f
9:12 17 23 mph 1015.9mb 73f 66f
9:06 17 23 mph 1015.9mb 73f 67f
9:00 21 24 mph 1015.9mb 73f 67f
8:54 18 25 mph 1015.7mb 73f 67f
8:48  -  mph 1015.4mb 73f -
8:42  -  mph 1015.3mb 73f -
8:36  -  mph 1015.3mb 73f -
8:30 18 26 mph 1015.2mb 73f 69f
8:24 22 28 mph 1015.1mb 73f 69f
8:18 17 23 mph 1015mb 73f 70f
8:12 16 20 mph 1014.9mb 73f 71f
8:06 20 22 mph 1014.8mb 73f 71f
8:00 20 23 mph 1014.6mb 73f 71f
7:54 20 24 mph 1014.5mb 73f 72f
7:48 18 22 mph 1014.3mb 73f -
7:42 17 22 mph 1014.3mb 74f -
7:36 18 21 mph 1014.3mb 74f -
7:30 17 22 mph - 73f -
7:24 13 16 mph - 74f -
7:18 6 7 mph 1013.8mb 73f 73f
7:12  -  2 mph 1013.9mb 73f 74f
7:06 1 2 mph 1013.9mb 73f 74f
7:00 2 3 mph 1013.8mb 73f 73f
6:54 2 3 mph 1013.7mb 73f 73f
6:48 3 5 mph 1013.7mb 73f -
6:42 5
mph
1013.6mb 73f -
6:36 6
mph
1013.6mb 73f -
6:30 6
mph
1013.5mb 73f 73f
6:24 5
mph
1013.5mb 73f 74f
6:18 3 5 mph 1013.5mb 73f 74f
6:12 5 6 mph 1013.4mb 73f 74f
6:06 6
mph
1013.3mb 73f 74f
6:00 6 7 mph 1013.3mb 73f -
5:54 7
mph
1013.2mb 73f -
5:48 7 8 mph 1013.3mb 73f 74f
5:42 7 8 mph 1013.2mb 73f 74f
5:36 7
mph
1013.2mb 73f 74f
5:30 7 8 mph 1013.2mb 73f 74f
5:24 8
mph
1013.1mb 73f 74f
5:18 7 8 mph 1013mb 73f 75f
5:12 6 7 mph 1013mb 73f 75f
5:06 6 7 mph 1013mb 73f 74f
5:00 6
mph
1012.9mb 73f 75f
4:54 6
mph
1013mb 73f 75f
4:48 6 7 mph 1013mb 73f 75f
4:42 8 9 mph 1013mb 73f 75f
4:36 9 10 mph 1013mb 73f 74f
4:30 9 10 mph 1013mb 73f 74f
4:24 9 10 mph 1013mb 73f 74f
4:18 9 10 mph 1013.1mb 73f 74f
4:12 9
mph
1013.1mb 73f 74f
4:06 9 10 mph 1013.2mb 73f 74f
4:00 11 13 mph 1013mb 73f 74f
3:54 11 13 mph 1012.9mb 73f 74f
3:48 11
mph
1013mb 73f 74f
3:42 10 11 mph 1013mb 73f 74f
3:36 10 13 mph 1013.1mb 73f 74f
3:30 10 11 mph 1013.2mb 73f 74f
3:24 10 13 mph 1013.3mb 73f 74f
3:18 9 13 mph 1013.4mb 73f 74f
3:12 9 11 mph 1013.5mb 73f 74f
3:06 9 11 mph 1013.5mb 73f 74f
3:00 8 10 mph 1013.6mb 73f 74f
2:54 8 10 mph 1013.6mb 73f 74f
2:48 10 13 mph 1013.6mb 73f 74f
2:42 13
mph
1013.6mb 73f 73f
2:36 11 13 mph 1013.6mb 73f 73f
2:30 10
mph
1013.6mb 73f 73f
2:24 9 10 mph 1013.7mb 73f 73f
2:18 11
mph
1013.8mb 73f 73f
2:12 9
mph
1013.9mb 73f 74f
2:06 7 10 mph 1014mb 73f 74f
2:00 10 11 mph 1013.8mb 73f 74f
1:54 11
mph
1013.9mb 73f 73f
1:48 9 11 mph 1014.1mb 73f 73f
1:42 10 11 mph 1014mb 73f 73f
1:36 10 11 mph 1014.1mb 73f 73f
1:30 9
mph
1014.2mb 73f 73f
1:24 8 10 mph 1014.4mb 73f 73f
1:18 9 10 mph 1014.4mb 73f 73f
1:12 9 10 mph 1014.5mb 73f 73f
1:06 9 10 mph 1014.7mb 73f 73f
1:00 8
mph
1014.8mb 73f 73f
12:54 8
mph
1014.8mb 73f 73f
12:48 8 9 mph 1014.7mb 73f 73f
12:42 9 10 mph 1014.7mb 73f 73f
12:36 10
mph
1014.8mb 73f 73f
12:30 9 10 mph 1014.9mb 73f 73f
12:24 8 9 mph 1014.9mb 73f 73f
12:18 8 10 mph 1014.9mb 73f 73f
12:12 9
mph
1014.9mb 73f 73f
12:06 9 10 mph 1014.8mb 73f 73f
12:00 8 9 mph 1014.8mb 73f 72f
11:54 9
mph
1015mb 73f 73f
11:48 8 9 mph 1015.1mb 72f 72f
11:42 9
mph
1015.1mb 72f 72f
11:36 8 10 mph 1015.2mb 72f 71f
11:30 9 11 mph 1015.3mb 72f 71f
11:24 10 13 mph 1015.2mb 72f 71f
11:18 10 13 mph 1015.2mb 72f 71f
11:12 10 13 mph 1015.3mb 72f 71f
11:06 11
mph
1015.3mb 72f 70f
11:00 10 11 mph 1015.3mb 72f 70f
10:54 10 11 mph 1015.3mb 72f 69f
10:48 8 10 mph 1015.5mb 72f 69f
10:42 10 11 mph 1015.5mb 72f 69f
10:36 9 10 mph 1015.6mb 72f 69f
10:30 8
mph
1015.8mb 72f 69f
10:24 6
mph
1015.9mb 72f 69f
10:18 3 5 mph 1016mb 72f 69f
10:12 2 5 mph 1016.1mb 72f 70f
10:06 3 5 mph 1016.2mb 72f 70f
10:00 3 5 mph 1016.2mb 72f 69f
9:54 2 5 mph 1016.3mb 72f 68f
9:48 2 5 mph 1016.3mb 72f 68f
9:42 5 6 mph 1016.4mb 72f 68f
9:36 3 6 mph 1016.4mb 72f 68f
9:30 5 7 mph 1016.4mb 72f 68f
9:24 7 8 mph 1016.6mb 72f 68f
9:18 7 8 mph 1016.6mb 72f 68f
9:12 5 6 mph 1016.7mb 72f 67f
9:06 2 3 mph 1016.7mb 72f 67f
9:00 1 2 mph 1016.7mb 72f 67f
8:54 3 5 mph 1016.8mb 72f 66f
8:48 3 5 mph 1016.7mb 72f 66f
8:42 3 5 mph 1016.7mb 72f 66f
8:36 3 5 mph 1016.7mb 72f 65f
8:30 3 5 mph 1016.7mb 72f 65f
8:24 3 5 mph 1016.8mb 72f 65f
8:18 5 6 mph 1016.8mb 72f 65f
8:12 2 5 mph 1016.9mb 72f 64f
8:06 3 5 mph 1016.9mb 72f 63f
8:00 2 3 mph 1016.9mb 72f 63f
7:54 2 3 mph 1017mb 72f 62f
7:48 3 5 mph 1017mb 72f 62f
7:42 6 7 mph 1017mb 72f 63f
7:36 6 8 mph 1016.9mb 72f 62f
7:30 7 8 mph 1017mb 72f 62f
7:24 7
mph
1017mb 72f 62f
7:18 5
mph
1017mb 72f 62f
7:12 2 5 mph 1017mb 72f 62f
7:06 3
mph
1016.9mb 72f 62f
7:00 2 3 mph 1016.8mb 72f 62f
6:54 3 6 mph 1016.7mb 72f 62f
6:48 5
mph
1016.6mb 72f 61f
6:42 5 6 mph 1016.6mb 72f 60f
6:36 6
mph
1016.7mb 72f 60f
6:30 5 6 mph 1016.6mb 72f 60f
6:24 3 5 mph 1016.7mb 72f 60f
6:18 5 6 mph 1016.7mb 72f 61f
6:12 6
mph
1016.6mb 72f 61f
6:06 3 5 mph 1016.6mb 73f 61f
6:00 3 5 mph 1016.7mb 73f 61f
5:54 5 6 mph 1016.7mb 73f 62f
5:48 6 7 mph 1016.8mb 73f 62f
5:42 6
mph
1016.8mb 73f 62f
5:36 6
mph
1016.8mb 73f 62f
5:30 5 6 mph 1016.7mb 73f 61f
5:24 6
mph
1016.7mb 73f 61f
5:18 6
mph
1016.7mb 73f 62f
5:12 5 6 mph 1016.7mb 73f 62f
5:06 5 6 mph 1016.6mb 73f 62f
5:00 5
mph
1016.7mb 73f 62f
4:54 3 5 mph 1016.8mb 73f 62f
4:48 3 5 mph 1016.8mb 73f 62f
4:42 5
mph
1016.9mb 73f 62f
4:36 3
mph
1016.9mb 73f 63f
4:30 3
mph
1017mb 73f 63f
4:24 3 5 mph 1017.1mb 73f 63f
4:18 5
mph
1017.1mb 73f 63f
4:12 6
mph
1017.1mb 73f 64f
4:06 6
mph
1017.1mb 73f 63f
4:00 5 6 mph 1017.1mb 73f 64f
3:54 3 5 mph 1017mb 73f 65f
3:48 5
mph
1016.9mb 73f 65f
3:42 5
mph
1016.9mb 73f 65f
3:36 5 6 mph 1016.9mb 73f 64f
3:30 6
mph
1016.9mb 73f 64f
3:24 6
mph
1016.8mb 73f 64f
3:18 5
mph
1017mb 73f 64f
3:12 5
mph
1017mb 73f 64f
3:06 5
mph
1017mb 73f 64f
3:00 5
mph
1017.1mb 73f 65f
2:54 3 5 mph 1017.2mb 73f 65f
2:48 5
mph
1017.1mb 73f -
2:42 3 5 mph 1017.2mb 73f -
2:36 5
mph
1017.4mb 73f -
2:30 3 5 mph 1017.5mb 73f 64f
2:24 2 3 mph 1017.6mb 73f 64f
2:18 2 3 mph 1017.7mb 73f 64f
2:12 2 5 mph 1017.7mb 73f 64f
2:06 5
mph
1017.7mb 73f 64f
2:00 3 5 mph 1017.8mb 73f 64f
1:54 5
mph
1017.8mb 73f 64f
1:48 5
mph
1017.8mb 73f 64f
1:42 5
mph
1017.8mb 73f 65f
1:36 3
mph
1017.8mb 73f 65f
1:30 3 5 mph 1017.9mb 73f 65f
1:24 3 5 mph 1018mb 73f 65f
1:18 5 6 mph 1018mb 73f 65f
1:12 5 6 mph 1018.1mb 73f 65f
1:06 5
mph
1018.1mb 73f 65f
1:00 2
mph
1018.1mb 73f 66f
12:54 3
mph
1018.1mb 73f 66f
12:48 3 5 mph 1018.2mb 73f 66f
12:42 5
mph
1018.4mb 73f 66f
12:36 3 5 mph 1018.4mb 73f 65f
12:30 5 6 mph 1018.5mb 73f 66f
12:24 5 7 mph 1018.6mb 73f 66f
12:18 7 8 mph 1018.7mb 73f 66f
12:12 7 8 mph 1018.7mb 73f 67f
12:06 5
mph
1018.6mb 73f 67f
12:00 5
mph
1018.5mb 73f 67f
jue 09/22 11:54 5
mph
1018.5mb 73f 67f
11:48 5 7 mph 1018.5mb 73f 68f
11:42 6 7 mph 1018.6mb 73f 68f
11:36 7 8 mph 1018.7mb 73f 68f
11:30 7 9 mph 1018.7mb 73f 69f
11:24 8 9 mph 1018.7mb 73f 69f
11:18 8 9 mph 1018.8mb 73f 69f
11:12 8 9 mph 1018.8mb 73f 69f
11:06 9 10 mph 1018.9mb 73f 69f
11:00 8 9 mph 1018.9mb 73f 69f
10:54 7 9 mph 1018.9mb 73f 69f
10:48 7 9 mph 1019mb 73f 69f
10:42 8 9 mph 1019.1mb 73f 68f
10:36 6 7 mph 1019.2mb 73f 68f
10:30 6 7 mph 1019.2mb 73f -
10:24 6
mph
1019.2mb 73f -
10:18  -  mph 1019.3mb 73f 69f
10:12  -  mph 1019.3mb 73f 69f
10:06  -  mph 1019.4mb 73f 69f
10:00 7 8 mph 1019.3mb 73f 69f
9:54 8 9 mph 1019.3mb 73f 69f
9:48 8 9 mph 1019.3mb 73f -
9:42 8 9 mph 1019.4mb 73f -
9:36 9 10 mph 1019.3mb 73f -
9:30 9 11 mph 1019.3mb 73f -
9:24 10 13 mph 1019.3mb 73f -
9:18 10 11 mph - 73f 70f
9:12 9 10 mph - 73f 70f
9:06 8 9 mph - 74f 70f
9:00 9 10 mph 1019.4mb 74f 70f
8:54 9 10 mph 1019.5mb 74f 71f
8:48 9 10 mph 1019.6mb 74f 71f
8:42 10 13 mph 1019.6mb 74f 71f
8:36 10 11 mph 1019.6mb 74f 71f
8:30 10 13 mph 1019.6mb 73f 72f
8:24 10 13 mph 1019.6mb 73f 72f
8:18 10 11 mph 1019.6mb 73f 71f
8:12 10 14 mph 1019.6mb 73f 72f
8:06 13 15 mph 1019.5mb 73f 72f
8:00 14
mph
1019.4mb 73f 72f
7:54 13 14 mph 1019.3mb 73f 72f
7:48 13 14 mph 1019.2mb 73f -
7:42 11 13 mph 1019.2mb 73f -
7:36 11 13 mph 1019.2mb 73f -
7:30 13 14 mph - 73f 72f
7:24 11 14 mph - 73f 73f
7:18 13 14 mph 1019.1mb 73f -
7:12 13 14 mph 1019.1mb 73f -
7:06 13 14 mph 1019.1mb 73f -
7:00 13 14 mph - 73f 73f
6:54 13 14 mph - 73f 73f
6:48 13 14 mph 1019.1mb 73f -
6:42 14 15 mph 1019.2mb 73f -
6:36 14 15 mph 1019.2mb 73f -
6:30 14
mph
1019.1mb 73f 74f
6:24 13 14 mph 1019.2mb 73f 74f
6:18 13 14 mph 1019.2mb 73f 74f
6:12 13 14 mph 1019.1mb 73f 74f
6:06 10 11 mph 1019.2mb 73f 74f
6:00 11 13 mph 1019.2mb 73f 74f
5:54 11 13 mph 1019.2mb 73f 75f
5:48 10 11 mph 1019.3mb 73f 75f
5:42 10 11 mph 1019.3mb 73f 75f
5:36 11
mph
1019.3mb 73f 75f
5:30 11 13 mph 1019.3mb 73f 75f
5:24 13 15 mph 1019.3mb 73f 75f
5:18 11 13 mph 1019.3mb 74f 75f
5:12 13 14 mph 1019.3mb 74f 75f
5:06 15
mph
1019.3mb 74f 75f
5:00 14 15 mph 1019.3mb 74f 75f
4:54 13 14 mph 1019.4mb 74f 75f
4:48 13
mph
1019.4mb 73f 75f
4:42 13 14 mph 1019.4mb 73f 75f
4:36 13 15 mph 1019.3mb 73f 76f
4:30 14 15 mph 1019.2mb 73f 76f
4:24 15
mph
1019.3mb 73f 76f
4:18 15
mph
1019.3mb - 76f
4:12 14 15 mph 1019.3mb - 76f
4:06 14 15 mph 1019.4mb - 76f
4:00 14 15 mph 1019.4mb 74f 76f
3:54 14
mph
1019.5mb 74f 76f
3:48 11 13 mph 1019.5mb 74f 76f
3:42 11 13 mph 1019.5mb 74f 76f
3:36 13
mph
1019.5mb 73f 76f
3:30 11
mph
1019.5mb 73f 77f
3:24 10 11 mph 1019.5mb 73f 76f
3:18 9 11 mph 1019.5mb 73f 76f
3:12 11
mph
1019.5mb 73f 76f
3:06 11
mph
1019.5mb 73f 76f
3:00 10 11 mph 1019.5mb 73f 76f
2:54 11
mph
1019.5mb 73f 76f
2:48 11 13 mph 1019.6mb 73f 76f
2:42 11 13 mph 1019.7mb 73f 75f
2:36 11
mph
1019.7mb 73f 76f
2:30 11
mph
1019.7mb 73f 76f
2:24 11
mph
1019.7mb 73f 76f
2:18 10 11 mph 1019.8mb 73f 76f
2:12 10 11 mph 1019.8mb 74f 75f
2:06 11
mph
1019.8mb 74f 75f
2:00 10 11 mph 1019.9mb 74f 75f
1:54 10 11 mph 1020mb 74f 75f
1:48 10 11 mph 1020.1mb 74f 75f
1:42  -  mph - 74f -
1:30 13 16 mph 1020.4mb 73f 74f
1:24 15 16 mph 1020.5mb 73f 74f
1:18 14
mph
1020.5mb 73f 74f
1:12 14
mph
1020.6mb 73f 74f
1:06 14 15 mph 1020.7mb 73f 74f
1:00 14 15 mph 1020.8mb 73f 74f
12:54 14
mph
1020.9mb 73f 75f
12:48 8 9 mph 1021mb 73f 76f
12:42 6 7 mph 1021.1mb 73f 76f
12:36 7
mph
1021mb 73f 76f
12:30 8
mph
1021mb 73f 76f
12:24 7
mph
1021.2mb 73f 76f
12:18 7
mph
1021.1mb 73f 76f
12:12 7 8 mph 1021.1mb 73f 76f
12:06 6 7 mph 1021.2mb 73f 76f
12:00 5 6 mph 1021.2mb 73f 76f
11:54 5 7 mph 1021.3mb 73f 76f
11:48 6 7 mph 1021.4mb 73f 78f
11:42 6 7 mph 1021.6mb 73f 78f
11:36 7 9 mph 1021.7mb 73f 78f
11:30 8 10 mph 1021.8mb 73f 78f
11:24 7 8 mph 1021.9mb 73f 78f
11:18  -  2 mph 1022mb 73f 77f
11:12 2 3 mph 1022mb 73f 74f
11:06 2
mph
1022mb 73f 74f
11:00  -  5 mph 1022mb 73f 74f
10:54 1 7 mph 1022mb 73f 73f
10:48 2 3 mph 1022.1mb 73f 73f
10:42  -  2 mph 1022.1mb 73f 72f
10:36 2
mph
1022.2mb 73f 72f
10:30 1 2 mph 1022.3mb 73f 73f
10:24  -  3 mph 1022.3mb 73f 73f
10:18 2 6 mph 1022.2mb 73f 75f
10:12 3 5 mph 1022.1mb 73f 75f
10:06  -  2 mph 1022.1mb 73f 72f
10:00  -  2 mph 1022.1mb 73f 71f
9:54 2
mph
1022.1mb 73f 70f
9:48 1 2 mph 1022.1mb 73f 69f
9:42 2 3 mph 1022.1mb 73f 69f
9:36 2
mph
1022mb 73f 71f
9:30 1 2 mph 1021.9mb 73f 72f
9:24 1 2 mph 1022mb 73f 72f
9:18  -  mph 1021.9mb 73f 72f
9:12  -  1 mph 1021.9mb 73f 70f
9:06  -  3 mph 1021.9mb 73f 69f
9:00 2 3 mph 1021.9mb 72f 68f
8:54 3 5 mph 1021.7mb 72f 68f
8:48 5 7 mph 1021.7mb 72f 68f
8:42 6
mph
1021.8mb 72f 67f
8:36 6 7 mph 1021.7mb 72f 67f
8:30 6
mph
1021.6mb 72f 67f
8:24 6 7 mph 1021.5mb 72f 67f
8:18 7 9 mph 1021.5mb 72f 66f
8:12 9 10 mph 1021.5mb 72f 66f
8:06 8 9 mph 1021.4mb 72f 66f
8:00 7 8 mph 1021.4mb 73f 66f
7:54 7
mph
1021.4mb 73f 65f
7:48 6 7 mph 1021.5mb 73f 65f
7:42 6 7 mph 1021.6mb 73f 65f
7:36 5 6 mph 1021.5mb 73f 66f
7:30 5
mph
1021.4mb 73f 66f
7:24 5
mph
1021.4mb 73f 66f
7:18 3
mph
1021.4mb 73f 66f
7:12 2 3 mph 1021.3mb 73f 66f
7:06 1 3 mph 1021.2mb 73f 66f
7:00 2 3 mph 1021.3mb 73f 65f
6:54 2 3 mph 1021.2mb 73f 65f
6:48 2 5 mph 1021.2mb 73f 64f
6:42 3
mph
1021.2mb 73f 64f
6:36 3 5 mph 1021.2mb 73f 64f
6:30 3 6 mph 1021.1mb 73f 64f
6:24 5 6 mph 1021.1mb 73f 64f
6:18 2 5 mph 1021mb 73f 64f
6:12 3 5 mph 1021mb 73f 64f
6:06 3 5 mph 1021mb 73f 64f
6:00 3 5 mph 1020.9mb 73f 64f
5:54 3 5 mph 1020.9mb 73f 65f
5:48 5
mph
1020.8mb 73f 65f
5:42 3 6 mph 1020.8mb 73f 65f
5:36 5 6 mph 1020.9mb 73f 65f
5:30 6 7 mph 1020.9mb 73f 65f
5:24 6 8 mph 1020.9mb 73f 65f
5:18 7 8 mph 1020.9mb 73f 65f
5:12 7 8 mph 1021mb 73f 64f
5:06 6
mph
1020.9mb 73f 64f
5:00 6 7 mph 1020.9mb 73f 64f
4:54 6 7 mph 1020.9mb 73f 64f
4:48 5 6 mph 1020.8mb 73f 64f
4:42 6
mph
1020.8mb 73f 65f
4:36 6 7 mph 1020.8mb 73f 65f
4:30 6 7 mph 1020.8mb 73f 65f
4:24 6
mph
1020.8mb 73f 65f
4:18 5 6 mph 1020.7mb 73f 65f
4:12 6 7 mph 1020.6mb 73f 65f
4:06 6
mph
1020.6mb 73f 65f
4:00 5 7 mph 1020.6mb 73f 65f
3:54 7
mph
1020.6mb 73f 65f
3:48 6
mph
1020.6mb 73f 65f
3:42 6
mph
1020.6mb 73f 65f
3:36 6
mph
1020.6mb 73f 65f
3:30 5 6 mph 1020.6mb 73f 65f
3:24 3 5 mph 1020.6mb 73f 65f
3:18 3 5 mph 1020.7mb 73f 65f
3:12 3 6 mph 1020.8mb 73f 66f
3:06 5
mph
1020.8mb 73f 65f
3:00 3 5 mph 1020.7mb 73f 65f
2:54 3 6 mph 1020.7mb 73f 66f
2:48 6
mph
1020.6mb 73f 66f
2:42 5 6 mph 1020.6mb 73f 66f
2:36 3 5 mph 1020.7mb 73f 66f
2:30 5
mph
1020.7mb 73f 65f
2:24 5 6 mph 1020.7mb 73f 65f
2:18 5 6 mph 1020.8mb 73f 66f
2:12 5 6 mph 1020.8mb 73f 66f
2:06 5 6 mph 1020.8mb 73f 66f
2:00 5
mph
1020.9mb 73f 66f
1:54 3 5 mph 1020.9mb 73f 66f
1:48 5 6 mph 1021mb 73f -
1:42 5 6 mph 1021mb 73f -
1:36 2 5 mph 1021.1mb 73f -
1:30 3 5 mph 1021.2mb 73f 65f
1:24 3
mph
1021.1mb 73f 66f
1:18 1 2 mph 1021.2mb 73f 66f
1:12 2 3 mph 1021.2mb 73f 66f
1:06 2 3 mph 1021.2mb 73f 66f
1:00 3 5 mph 1021.3mb 73f 66f
12:54 3
mph
1021.4mb 73f 66f
12:48 3 5 mph 1021.4mb 73f 67f
12:42 3 5 mph 1021.4mb 73f 67f
12:36 3 5 mph 1021.5mb 73f 67f
12:30 3 5 mph 1021.6mb 73f 67f
12:24 3 5 mph 1021.7mb 73f 67f
12:18 5
mph
1021.7mb 73f 67f
12:12 3 5 mph 1021.8mb 73f 67f
12:06 3 5 mph 1021.8mb 73f 67f
12:00 2 3 mph 1021.7mb 73f 67f
mié 09/21 11:54 2 3 mph 1021.6mb 73f 67f
11:48 2 3 mph 1021.5mb 73f 68f
11:42 2 3 mph 1021.5mb 73f 68f
11:36 2 3 mph 1021.4mb 73f 68f
11:30 3 5 mph 1021.4mb 73f 68f
11:24 3
mph
1021.4mb 73f 69f
11:18 2 3 mph 1021.4mb 73f 69f
11:12 2 3 mph 1021.5mb 74f 69f
11:06 2 3 mph 1021.5mb 74f 69f
11:00 2 3 mph 1021.5mb 74f 69f
10:54 2
mph
1021.5mb 74f 71f
10:48 1 2 mph 1021.5mb 74f 71f
10:42 1 3 mph 1021.5mb 74f 71f
10:36 2
mph
1021.5mb 74f 70f
10:30 2
mph
1021.5mb 74f -
10:24 2 6 mph 1021.4mb 74f -
10:18 6
mph
1021.3mb 74f 71f
10:12 6 7 mph 1021.2mb 74f 71f
10:06 7 8 mph 1021.2mb 74f 71f
10:00 7 8 mph 1021.1mb 74f 71f
9:54 8
mph
1021.1mb 74f 71f
9:48 7
mph
- 74f 71f
9:42 7
mph
- 74f 71f
9:36 5 6 mph - 74f 71f
9:30 6
mph
1021.2mb 74f -
9:24 6
mph
1021.2mb 74f -
9:18 3 5 mph 1021.3mb 74f 72f
9:12 5
mph
1021.4mb 74f 72f
9:06 3
mph
1021.5mb 74f 73f
9:00 3 5 mph 1021.4mb 74f 72f
8:54 5 6 mph 1021.4mb 74f 72f
8:48 5
mph
1021.4mb 74f 72f
8:42 5 6 mph 1021.5mb 74f 72f
8:36 5 6 mph 1021.4mb 74f 72f
8:30 2 3 mph 1021.4mb 74f 73f
8:24 1 2 mph 1021.4mb 74f 73f
8:18  -  mph 1021.3mb 74f 73f
8:12  -  mph 1021.2mb 74f 74f
8:06  -  mph 1021.1mb 74f 74f
8:00 3 5 mph 1021mb 74f 74f
7:54 3 6 mph 1020.9mb 74f 74f
7:48 6 7 mph 1020.9mb 74f -
7:42 7 8 mph 1020.9mb 74f -
7:36 8 10 mph 1020.8mb 74f -
7:30 10
mph
1020.8mb 74f 75f